createdAt,value
2023-11-30T00:01:03.278Z,99617.59
2023-11-30T00:03:57.037Z,99631.78
2023-11-30T00:06:48.433Z,99631.56
2023-11-30T00:09:37.477Z,99613.66
2023-11-30T00:12:24.302Z,99643.31
2023-11-30T00:15:12.361Z,99637.19
2023-11-30T00:18:01.817Z,99648.34
2023-11-30T00:20:52.511Z,99650.78
2023-11-30T00:23:39.569Z,99643.66
2023-11-30T00:26:30.830Z,99647.34
2023-11-30T00:29:27.467Z,99642.47
2023-11-30T00:32:17.510Z,99640.13
2023-11-30T00:35:10.018Z,99644.59
2023-11-30T00:38:02.922Z,99653.69
2023-11-30T00:40:51.224Z,99603.72
2023-11-30T00:43:38.073Z,99657.72
2023-11-30T00:46:25.695Z,99657.38
2023-11-30T00:49:20.349Z,99667.97
2023-11-30T00:52:09.785Z,99669.81
2023-11-30T00:54:58.448Z,99665.59
2023-11-30T00:57:49.634Z,99671.13
2023-11-30T01:00:36.405Z,99616.41
2023-11-30T01:03:27.636Z,99688.00
2023-11-30T01:06:19.475Z,99683.69
2023-11-30T01:09:09.431Z,99635.66
2023-11-30T01:12:00.207Z,99682.28
2023-11-30T01:14:50.172Z,99685.59
2023-11-30T01:17:39.240Z,99699.13
2023-11-30T01:20:26.412Z,99685.88
2023-11-30T01:23:14.267Z,99682.00
2023-11-30T01:26:27.358Z,99696.69
2023-11-30T01:29:20.112Z,99709.78
2023-11-30T01:32:07.341Z,99700.47
2023-11-30T01:34:54.373Z,99712.22
2023-11-30T01:37:41.348Z,99711.44
2023-11-30T01:40:29.379Z,99711.16
2023-11-30T01:43:20.945Z,99714.88
2023-11-30T01:46:12.094Z,99716.50
2023-11-30T01:49:01.380Z,99726.59
2023-11-30T01:51:53.010Z,99712.31
2023-11-30T01:54:42.838Z,99718.06
2023-11-30T01:57:34.769Z,99718.28
2023-11-30T02:00:29.708Z,99721.22
2023-11-30T02:03:25.304Z,99732.75
2023-11-30T02:06:18.630Z,99736.84
2023-11-30T02:09:05.475Z,99736.38
2023-11-30T02:11:57.471Z,99739.78
2023-11-30T02:14:44.671Z,99737.19
2023-11-30T02:17:33.803Z,99737.88
2023-11-30T02:20:33.211Z,99730.19
2023-11-30T02:23:22.845Z,99729.91
2023-11-30T02:26:17.479Z,99734.28
2023-11-30T02:29:04.523Z,99739.31
2023-11-30T02:32:01.208Z,99735.78
2023-11-30T02:34:50.520Z,99733.50
2023-11-30T02:37:37.326Z,99740.69
2023-11-30T02:40:30.613Z,99736.38
2023-11-30T02:43:17.322Z,99738.97
2023-11-30T02:46:08.929Z,99741.69
2023-11-30T02:48:58.417Z,99749.09
2023-11-30T02:51:47.869Z,99758.31
2023-11-30T02:54:34.597Z,99743.66
2023-11-30T02:57:28.022Z,99752.47
2023-11-30T03:00:41.080Z,99746.81
2023-11-30T03:03:27.893Z,99752.41
2023-11-30T03:06:19.747Z,99744.75
2023-11-30T03:09:07.193Z,99751.22
2023-11-30T03:11:54.146Z,99745.97
2023-11-30T03:14:48.096Z,99746.38
2023-11-30T03:17:35.340Z,99738.75
2023-11-30T03:20:24.511Z,99744.50
2023-11-30T03:23:11.337Z,99739.31
2023-11-30T03:25:59.331Z,99736.28
2023-11-30T03:28:53.917Z,99728.94
2023-11-30T03:31:42.446Z,99729.88
2023-11-30T03:34:55.464Z,99725.06
2023-11-30T03:37:45.212Z,99722.28
2023-11-30T03:40:36.627Z,99725.13
2023-11-30T03:43:23.540Z,99723.16
2023-11-30T03:46:19.033Z,99728.66
2023-11-30T03:49:10.289Z,99726.78
2023-11-30T03:52:01.437Z,99732.59
2023-11-30T03:54:50.603Z,99731.66
2023-11-30T03:57:37.272Z,99730.28
2023-11-30T04:00:24.502Z,99726.69
2023-11-30T04:03:12.549Z,99728.41
2023-11-30T04:06:05.937Z,99681.47
2023-11-30T04:08:54.230Z,99734.56
2023-11-30T04:11:42.288Z,99732.78
2023-11-30T04:14:31.906Z,99724.72
2023-11-30T04:17:21.618Z,99736.91
2023-11-30T04:20:14.948Z,99739.94
2023-11-30T04:23:05.866Z,99732.16
2023-11-30T04:25:56.804Z,99740.81
2023-11-30T04:28:45.557Z,99746.06
2023-11-30T04:31:34.655Z,99734.53
2023-11-30T04:34:47.281Z,99731.13
2023-11-30T04:37:34.959Z,99742.19
2023-11-30T04:40:25.071Z,99732.69
2023-11-30T04:43:14.197Z,99734.56
2023-11-30T04:46:09.082Z,99736.44
2023-11-30T04:49:02.469Z,99730.50
2023-11-30T04:51:49.224Z,99734.16
2023-11-30T04:54:39.500Z,99733.81
2023-11-30T04:57:27.813Z,99730.56
2023-11-30T05:00:16.853Z,99737.31
2023-11-30T05:03:04.730Z,99744.16
2023-11-30T05:05:51.745Z,99745.38
2023-11-30T05:08:39.379Z,99741.72
2023-11-30T05:11:32.502Z,99748.47
2023-11-30T05:14:21.201Z,99756.59
2023-11-30T05:17:10.642Z,99754.97
2023-11-30T05:19:58.615Z,99746.34
2023-11-30T05:22:47.839Z,99747.00
2023-11-30T05:25:35.343Z,99745.56
2023-11-30T05:28:24.814Z,99750.41
2023-11-30T05:31:18.072Z,99762.56
2023-11-30T05:34:07.170Z,99760.06
2023-11-30T05:36:56.758Z,99751.38
2023-11-30T05:40:10.607Z,99756.75
2023-11-30T05:42:59.417Z,99773.50
2023-11-30T05:45:48.808Z,99773.25
2023-11-30T05:48:38.931Z,99776.69
2023-11-30T05:51:28.891Z,99785.78
2023-11-30T05:54:20.412Z,99785.09
2023-11-30T05:57:07.547Z,99790.59
2023-11-30T05:59:56.712Z,99782.34
2023-11-30T06:02:46.029Z,99791.38
2023-11-30T06:05:34.764Z,99796.22
2023-11-30T06:08:21.802Z,99798.59
2023-11-30T06:11:09.972Z,99796.59
2023-11-30T06:14:01.608Z,99808.34
2023-11-30T06:16:51.479Z,99807.84
2023-11-30T06:19:40.460Z,99812.41
2023-11-30T06:22:31.126Z,99812.56
2023-11-30T06:25:20.715Z,99809.41
2023-11-30T06:28:07.331Z,99809.84
2023-11-30T06:30:55.765Z,99815.16
2023-11-30T06:33:43.665Z,99821.88
2023-11-30T06:36:32.836Z,99823.94
2023-11-30T06:39:33.535Z,99818.00
2023-11-30T06:42:20.630Z,99825.78
2023-11-30T06:45:11.465Z,99820.81
2023-11-30T06:48:01.672Z,99820.88
2023-11-30T06:50:48.692Z,99822.44
2023-11-30T06:53:40.166Z,99827.75
2023-11-30T06:56:28.959Z,99828.09
2023-11-30T06:59:15.854Z,99826.72
2023-11-30T07:02:05.380Z,99835.03
2023-11-30T07:04:54.592Z,99829.69
2023-11-30T07:07:41.667Z,99836.69
2023-11-30T07:10:30.745Z,99831.25
2023-11-30T07:13:19.119Z,99834.53
2023-11-30T07:16:11.766Z,99833.41
2023-11-30T07:18:58.853Z,99833.91
2023-11-30T07:21:49.096Z,99837.09
2023-11-30T07:24:36.152Z,99838.41
2023-11-30T07:27:30.958Z,99844.19
2023-11-30T07:30:20.124Z,99843.13
2023-11-30T07:33:23.605Z,99847.94
2023-11-30T07:36:14.631Z,99848.63
2023-11-30T07:39:03.550Z,99853.22
2023-11-30T07:41:54.290Z,99853.50
2023-11-30T07:44:43.359Z,99852.00
2023-11-30T07:47:31.367Z,99856.22
2023-11-30T07:50:18.325Z,99856.09
2023-11-30T07:53:11.284Z,99860.25
2023-11-30T07:56:02.860Z,99862.97
2023-11-30T07:58:52.129Z,99859.97
2023-11-30T08:01:43.298Z,99865.03
2023-11-30T08:04:34.710Z,99854.00
2023-11-30T08:07:28.313Z,99864.59
2023-11-30T08:10:15.477Z,99858.50
2023-11-30T08:13:02.591Z,99872.03
2023-11-30T08:15:51.600Z,99873.63
2023-11-30T08:18:42.616Z,99869.03
2023-11-30T08:21:31.900Z,99869.25
2023-11-30T08:24:18.587Z,99871.50
2023-11-30T08:27:09.795Z,99872.31
2023-11-30T08:30:08.736Z,99868.88
2023-11-30T08:32:56.618Z,99868.28
2023-11-30T08:35:51.591Z,99877.88
2023-11-30T08:38:45.051Z,99877.19
2023-11-30T08:41:32.532Z,99868.94
2023-11-30T08:44:24.116Z,99869.63
2023-11-30T08:47:13.187Z,99876.34
2023-11-30T08:50:00.378Z,99872.00
2023-11-30T08:52:47.482Z,99878.47
2023-11-30T08:55:36.934Z,99877.38
2023-11-30T08:58:25.494Z,99828.72
2023-11-30T09:01:15.036Z,99874.59
2023-11-30T09:04:06.379Z,99879.75
2023-11-30T09:06:54.008Z,99882.59
2023-11-30T09:09:47.575Z,99881.00
2023-11-30T09:12:40.787Z,99878.50
2023-11-30T09:15:32.519Z,99874.97
2023-11-30T09:18:20.047Z,99874.53
2023-11-30T09:21:08.749Z,99876.78
2023-11-30T09:23:57.396Z,99882.34
2023-11-30T09:26:46.494Z,99886.81
2023-11-30T09:29:39.474Z,99884.66
2023-11-30T09:32:28.516Z,99879.41
2023-11-30T09:35:15.940Z,99878.56
2023-11-30T09:38:02.730Z,99873.94
2023-11-30T09:40:50.547Z,99878.72
2023-11-30T09:43:38.451Z,99871.69
2023-11-30T09:46:31.369Z,99860.56
2023-11-30T09:49:25.711Z,99865.22
2023-11-30T09:52:15.080Z,99859.72
2023-11-30T09:55:05.131Z,99857.56
2023-11-30T09:57:54.179Z,99854.81
2023-11-30T10:00:43.725Z,99845.22
2023-11-30T10:03:43.748Z,99850.81
2023-11-30T10:06:34.006Z,99841.97
2023-11-30T10:09:23.079Z,99839.97
2023-11-30T10:12:12.549Z,99837.06
2023-11-30T10:15:03.232Z,99832.69
2023-11-30T10:17:53.231Z,99824.47
2023-11-30T10:20:45.206Z,99822.00
2023-11-30T10:23:32.151Z,99818.38
2023-11-30T10:26:20.080Z,99827.47
2023-11-30T10:29:10.564Z,99826.13
2023-11-30T10:32:01.635Z,99829.56
2023-11-30T10:34:53.568Z,99819.66
2023-11-30T10:37:48.287Z,99826.22
2023-11-30T10:40:37.241Z,99819.03
2023-11-30T10:43:30.209Z,99817.81
2023-11-30T10:46:20.311Z,99807.50
2023-11-30T10:49:11.390Z,99812.00
2023-11-30T10:52:05.318Z,99811.31
2023-11-30T10:55:22.894Z,99809.78
2023-11-30T10:58:13.229Z,99801.53
2023-11-30T11:01:28.590Z,99791.72
2023-11-30T11:04:19.656Z,99790.19
2023-11-30T11:07:17.972Z,99794.22
2023-11-30T11:10:15.323Z,99801.53
2023-11-30T11:13:04.184Z,99796.56
2023-11-30T11:16:02.204Z,99791.72
2023-11-30T11:18:51.590Z,99784.19
2023-11-30T11:21:42.849Z,99781.47
2023-11-30T11:24:33.851Z,99782.69
2023-11-30T11:27:40.457Z,99770.50
2023-11-30T11:30:30.012Z,99787.06
2023-11-30T11:33:22.282Z,99797.38
2023-11-30T11:36:14.981Z,99792.34
2023-11-30T11:39:03.992Z,99781.22
2023-11-30T11:41:51.636Z,99780.00
2023-11-30T11:44:45.975Z,99783.84
2023-11-30T11:47:41.344Z,99780.38
2023-11-30T11:50:28.643Z,99771.72
2023-11-30T11:53:17.625Z,99771.16
2023-11-30T11:56:12.013Z,99761.47
2023-11-30T11:59:08.337Z,99761.09
2023-11-30T12:01:59.172Z,99758.63
2023-11-30T12:04:47.854Z,99758.41
2023-11-30T12:07:49.013Z,99747.22
2023-11-30T12:10:41.500Z,99758.50
2023-11-30T12:13:29.309Z,99750.53
2023-11-30T12:16:18.911Z,99754.81
2023-11-30T12:19:34.395Z,99760.09
2023-11-30T12:22:32.867Z,99748.31
2023-11-30T12:25:22.586Z,99745.69
2023-11-30T12:28:13.669Z,99743.78
2023-11-30T12:31:00.614Z,99737.31
2023-11-30T12:33:49.342Z,99732.84
2023-11-30T12:36:42.353Z,99735.41
2023-11-30T12:39:35.990Z,99736.34
2023-11-30T12:42:25.529Z,99732.09
2023-11-30T12:45:13.923Z,99730.00
2023-11-30T12:48:03.493Z,99740.28
2023-11-30T12:50:54.711Z,99748.53
2023-11-30T12:53:41.697Z,99749.19
2023-11-30T12:56:34.603Z,99752.28
2023-11-30T12:59:21.967Z,99750.25
2023-11-30T13:02:11.166Z,99755.47
2023-11-30T13:05:00.065Z,99757.81
2023-11-30T13:07:53.809Z,99764.69
2023-11-30T13:10:44.717Z,99764.09
2023-11-30T13:13:41.931Z,99770.16
2023-11-30T13:16:32.679Z,99766.88
2023-11-30T13:19:24.810Z,99771.00
2023-11-30T13:22:15.079Z,99780.38
2023-11-30T13:25:07.721Z,99784.03
2023-11-30T13:27:58.927Z,99785.78
2023-11-30T13:30:52.045Z,99790.44
2023-11-30T13:33:39.732Z,99796.59
2023-11-30T13:36:28.967Z,99794.69
2023-11-30T13:39:16.748Z,99799.88
2023-11-30T13:42:08.531Z,99791.97
2023-11-30T13:45:01.060Z,99799.19
2023-11-30T13:47:51.757Z,99793.69
2023-11-30T13:50:49.444Z,99793.97
2023-11-30T13:53:45.276Z,99796.94
2023-11-30T13:56:32.707Z,99800.38
2023-11-30T13:59:20.191Z,99794.75
2023-11-30T14:02:08.725Z,99801.75
2023-11-30T14:04:58.089Z,99799.69
2023-11-30T14:07:47.553Z,99802.34
2023-11-30T14:10:39.116Z,99808.19
2023-11-30T14:16:29.646Z,99808.13
2023-11-30T14:19:17.969Z,99807.09
2023-11-30T14:22:11.880Z,99802.53
2023-11-30T14:25:00.994Z,99804.09
2023-11-30T14:27:50.085Z,99802.66
2023-11-30T14:30:41.230Z,99804.44
2023-11-30T14:33:29.323Z,99805.59
2023-11-30T14:36:19.042Z,99798.66
2023-11-30T14:39:12.382Z,99793.81
2023-11-30T14:41:59.746Z,99790.06
2023-11-30T14:44:49.074Z,99786.25
2023-11-30T14:48:29.949Z,99788.34
2023-11-30T14:51:19.164Z,99790.38
2023-11-30T14:54:35.476Z,99786.66
2023-11-30T14:57:22.724Z,99780.19
2023-11-30T15:00:20.697Z,99788.81
2023-11-30T15:03:10.779Z,99783.22
2023-11-30T15:06:01.384Z,99776.00
2023-11-30T15:08:54.113Z,99788.94
2023-11-30T15:11:44.690Z,99785.38
2023-11-30T15:14:33.978Z,99793.25
2023-11-30T15:17:23.153Z,99788.44
2023-11-30T15:20:35.560Z,99799.53
2023-11-30T15:23:22.265Z,99802.56
2023-11-30T15:26:16.160Z,99802.56
2023-11-30T15:29:06.635Z,99805.81
2023-11-30T15:31:57.689Z,99812.09
2023-11-30T15:34:46.706Z,99800.72
2023-11-30T15:37:36.432Z,99806.50
2023-11-30T15:40:32.164Z,99799.47
2023-11-30T15:43:26.145Z,99804.56
2023-11-30T15:46:40.227Z,99813.00
2023-11-30T15:49:29.420Z,99812.28
2023-11-30T15:52:16.379Z,99802.84
2023-11-30T15:55:12.115Z,99814.97
2023-11-30T15:58:01.361Z,99825.19
2023-11-30T16:00:55.937Z,99827.03
2023-11-30T16:03:45.334Z,99823.19
2023-11-30T16:06:37.896Z,99825.88
2023-11-30T16:09:26.215Z,99823.75
2023-11-30T16:12:13.821Z,99826.19
2023-11-30T16:15:01.196Z,99819.50
2023-11-30T16:18:04.858Z,99823.78
2023-11-30T16:21:01.364Z,99822.44
2023-11-30T16:23:55.206Z,99818.63
2023-11-30T16:26:58.496Z,99818.63
2023-11-30T16:30:45.841Z,99819.84
2023-11-30T16:34:03.328Z,99815.31
2023-11-30T16:37:07.365Z,99804.31
2023-11-30T16:40:02.320Z,99806.41
2023-11-30T16:43:01.552Z,99812.16
2023-11-30T16:45:56.517Z,99816.13
2023-11-30T16:48:49.894Z,99812.56
2023-11-30T16:51:48.884Z,99814.31
2023-11-30T16:54:55.094Z,99814.88
2023-11-30T16:57:48.969Z,99820.53
2023-11-30T17:00:51.441Z,99810.34
2023-11-30T17:03:41.096Z,99810.84
2023-11-30T17:06:32.282Z,99809.53
2023-11-30T17:09:22.143Z,99813.88
2023-11-30T17:12:12.570Z,99810.28
2023-11-30T17:14:59.287Z,99812.16
2023-11-30T17:17:50.620Z,99808.16
2023-11-30T17:20:38.905Z,99806.56
2023-11-30T17:23:28.006Z,99808.53
2023-11-30T17:26:20.291Z,99804.13
2023-11-30T17:29:14.889Z,99808.34
2023-11-30T17:32:01.741Z,99811.91
2023-11-30T17:35:22.615Z,99805.09
2023-11-30T17:38:20.850Z,99810.13
2023-11-30T17:41:11.664Z,99804.75
2023-11-30T17:44:02.088Z,99798.47
2023-11-30T17:46:56.223Z,99808.84
2023-11-30T17:50:11.308Z,99814.44
2023-11-30T17:52:58.527Z,99810.81
2023-11-30T17:55:47.831Z,99820.78
2023-11-30T17:58:39.147Z,99811.34
2023-11-30T18:01:26.129Z,99816.31
2023-11-30T18:04:14.251Z,99814.03
2023-11-30T18:07:05.665Z,99807.84
2023-11-30T18:09:58.846Z,99800.38
2023-11-30T18:12:48.119Z,99807.97
2023-11-30T18:15:38.016Z,99819.09
2023-11-30T18:18:25.960Z,99813.88
2023-11-30T18:21:14.288Z,99811.06
2023-11-30T18:24:04.718Z,99812.88
2023-11-30T18:26:56.328Z,99812.03
2023-11-30T18:29:43.946Z,99816.66
2023-11-30T18:32:33.286Z,99811.56
2023-11-30T18:35:25.188Z,99820.75
2023-11-30T18:38:15.822Z,99815.88
2023-11-30T18:41:05.244Z,99809.84
2023-11-30T18:43:52.140Z,99811.09
2023-11-30T18:46:41.945Z,99817.34
2023-11-30T18:49:31.199Z,99821.38
2023-11-30T18:52:20.307Z,99823.44
2023-11-30T18:55:10.016Z,99818.06
2023-11-30T18:57:57.871Z,99786.81
2023-11-30T19:00:45.816Z,99820.09
2023-11-30T19:03:35.956Z,99815.59
2023-11-30T19:06:28.702Z,99813.44
2023-11-30T19:09:20.325Z,99816.13
2023-11-30T19:12:12.703Z,99829.00
2023-11-30T19:15:04.319Z,99832.44
2023-11-30T19:17:53.532Z,99835.03
2023-11-30T19:20:40.736Z,99836.69
2023-11-30T19:23:30.163Z,99843.63
2023-11-30T19:26:19.779Z,99839.94
2023-11-30T19:29:08.256Z,99840.53
2023-11-30T19:31:57.642Z,99845.38
2023-11-30T19:34:46.869Z,99836.88
2023-11-30T19:37:35.986Z,99839.06
2023-11-30T19:40:30.036Z,99836.78
2023-11-30T19:43:17.853Z,99851.78
2023-11-30T19:46:11.708Z,99838.91
2023-11-30T19:49:01.422Z,99839.16
2023-11-30T19:51:51.019Z,99837.31
2023-11-30T19:54:40.266Z,99843.91
2023-11-30T19:57:31.558Z,99841.09
2023-11-30T20:00:24.494Z,99842.28
2023-11-30T20:03:15.979Z,99839.50
2023-11-30T20:06:03.390Z,99830.81
2023-11-30T20:08:52.961Z,99840.31
2023-11-30T20:11:39.963Z,99829.16
2023-11-30T20:14:28.418Z,99833.72
2023-11-30T20:17:17.556Z,99836.66
2023-11-30T20:20:07.376Z,99838.78
2023-11-30T20:22:57.129Z,99835.66
2023-11-30T20:25:45.004Z,99827.63
2023-11-30T20:28:32.898Z,99829.50
2023-11-30T20:31:24.621Z,99827.06
2023-11-30T20:34:12.816Z,99834.41
2023-11-30T20:37:06.622Z,99828.88
2023-11-30T20:39:55.153Z,99833.59
2023-11-30T20:42:42.909Z,99838.78
2023-11-30T20:45:32.362Z,99842.63
2023-11-30T20:48:23.606Z,99843.63
2023-11-30T20:51:25.083Z,99839.03
2023-11-30T20:54:16.400Z,99839.38
2023-11-30T20:57:05.641Z,99844.81
2023-11-30T20:59:56.749Z,99840.56
2023-11-30T21:02:46.287Z,99839.16
2023-11-30T21:05:37.080Z,99726.72
2023-11-30T21:08:26.099Z,99845.97
2023-11-30T21:11:21.273Z,99845.53
2023-11-30T21:14:10.020Z,99849.25
2023-11-30T21:16:56.976Z,99853.47
2023-11-30T21:19:46.434Z,99855.91
2023-11-30T21:22:37.732Z,99849.00
2023-11-30T21:25:28.878Z,99855.69
2023-11-30T21:28:24.700Z,99799.81
2023-11-30T21:31:14.096Z,99859.25
2023-11-30T21:34:01.158Z,99856.06
2023-11-30T21:36:47.865Z,99864.47
2023-11-30T21:39:38.023Z,99861.84
2023-11-30T21:42:28.587Z,99866.44
2023-11-30T21:45:24.696Z,99868.91
2023-11-30T21:48:16.123Z,99870.75
2023-11-30T21:51:03.313Z,99873.69
2023-11-30T21:54:02.367Z,99811.53
2023-11-30T21:56:54.513Z,99878.19
2023-11-30T21:59:48.551Z,99873.84
2023-11-30T22:02:48.585Z,99871.28
2023-11-30T22:05:37.791Z,99874.63
2023-11-30T22:08:33.586Z,99875.41
2023-11-30T22:11:26.996Z,99875.66
2023-11-30T22:14:17.161Z,99876.34
2023-11-30T22:17:08.006Z,99870.22
2023-11-30T22:20:01.692Z,99863.19
2023-11-30T22:22:52.913Z,99870.75
2023-11-30T22:25:53.309Z,99871.81
2023-11-30T22:28:50.185Z,99863.69
2023-11-30T22:31:39.606Z,99868.13
2023-11-30T22:34:27.625Z,99875.06
2023-11-30T22:37:22.998Z,99877.91
2023-11-30T22:40:13.420Z,99881.09
2023-11-30T22:43:00.043Z,99877.69
2023-11-30T22:45:47.066Z,99875.28
2023-11-30T22:48:38.901Z,99859.78
2023-11-30T22:51:25.747Z,99874.47
2023-11-30T22:54:16.397Z,99874.78
2023-11-30T22:57:03.950Z,99885.75
2023-11-30T22:59:52.992Z,99872.06
2023-11-30T23:02:43.115Z,99873.56
2023-11-30T23:05:32.906Z,99867.69
2023-11-30T23:08:19.829Z,99882.63
2023-11-30T23:11:19.481Z,99880.00
2023-11-30T23:14:06.720Z,99882.78
2023-11-30T23:16:56.593Z,99872.38
2023-11-30T23:19:43.956Z,99875.19
2023-11-30T23:22:33.265Z,99869.59
2023-11-30T23:25:25.179Z,99861.69
2023-11-30T23:28:15.319Z,99865.03
2023-11-30T23:31:02.975Z,99873.94
2023-11-30T23:33:52.366Z,99881.13
2023-11-30T23:36:41.695Z,99837.91
2023-11-30T23:39:31.293Z,99877.63
2023-11-30T23:42:19.165Z,99885.22
2023-11-30T23:45:11.985Z,99888.59
2023-11-30T23:48:01.075Z,99893.91
2023-11-30T23:50:50.694Z,99895.63
2023-11-30T23:53:37.726Z,99900.78
2023-11-30T23:56:24.674Z,99888.91
2023-11-30T23:59:13.891Z,99896.47
